sensor_id;sensor_type;location;lat;lon;timestamp;pressure;altitude;pressure_sealevel;temperature;humidity
21781;BME280;52576;53.614;9.894;2023-06-22T00:00:34;101742.06;;;17.53;68.59
21781;BME280;52576;53.614;9.894;2023-06-22T00:02:37;101741.31;;;17.51;69.20
21781;BME280;52576;53.614;9.894;2023-06-22T00:04:40;101736.16;;;17.49;69.05
21781;BME280;52576;53.614;9.894;2023-06-22T00:06:43;101735.56;;;17.46;69.13
21781;BME280;52576;53.614;9.894;2023-06-22T00:08:47;101734.09;;;17.42;69.27
21781;BME280;52576;53.614;9.894;2023-06-22T00:10:50;101736.19;;;17.38;69.30
21781;BME280;52576;53.614;9.894;2023-06-22T00:12:53;101735.47;;;17.36;69.64
21781;BME280;52576;53.614;9.894;2023-06-22T00:14:56;101731.25;;;17.34;69.73
21781;BME280;52576;53.614;9.894;2023-06-22T00:16:58;101727.88;;;17.32;69.86
21781;BME280;52576;53.614;9.894;2023-06-22T00:19:01;101732.34;;;17.31;70.34
21781;BME280;52576;53.614;9.894;2023-06-22T00:21:04;101723.66;;;17.29;70.32
21781;BME280;52576;53.614;9.894;2023-06-22T00:23:08;101731.72;;;17.27;70.39
21781;BME280;52576;53.614;9.894;2023-06-22T00:25:12;101740.66;;;17.26;70.46
21781;BME280;52576;53.614;9.894;2023-06-22T00:27:15;101737.28;;;17.24;70.81
21781;BME280;52576;53.614;9.894;2023-06-22T00:29:17;101742.56;;;17.24;70.81
21781;BME280;52576;53.614;9.894;2023-06-22T00:31:20;101740.88;;;17.23;70.94
21781;BME280;52576;53.614;9.894;2023-06-22T00:33:23;101748.13;;;17.21;70.98
21781;BME280;52576;53.614;9.894;2023-06-22T00:35:26;101746.44;;;17.20;71.01
21781;BME280;52576;53.614;9.894;2023-06-22T00:37:30;101753.66;;;17.18;71.43
21781;BME280;52576;53.614;9.894;2023-06-22T00:39:33;101750.28;;;17.16;71.45
21781;BME280;52576;53.614;9.894;2023-06-22T00:41:38;101752.22;;;17.14;71.63
21781;BME280;52576;53.614;9.894;2023-06-22T00:43:40;101748.00;;;17.12;71.99
21781;BME280;52576;53.614;9.894;2023-06-22T00:45:43;101744.63;;;17.10;72.32
21781;BME280;52576;53.614;9.894;2023-06-22T00:47:46;101745.72;;;17.07;72.10
21781;BME280;52576;53.614;9.894;2023-06-22T00:49:49;101748.50;;;17.06;72.41
21781;BME280;52576;53.614;9.894;2023-06-22T00:51:53;101752.22;;;17.03;72.61
21781;BME280;52576;53.614;9.894;2023-06-22T00:53:57;101753.19;;;17.02;72.47
21781;BME280;52576;53.614;9.894;2023-06-22T00:56:00;101744.50;;;17.00;72.75
21781;BME280;52576;53.614;9.894;2023-06-22T00:58:06;101750.78;;;16.99;73.00
21781;BME280;52576;53.614;9.894;2023-06-22T01:00:13;101757.03;;;16.98;73.22
21781;BME280;52576;53.614;9.894;2023-06-22T01:02:16;101758.00;;;16.97;73.34
21781;BME280;52576;53.614;9.894;2023-06-22T01:04:19;101752.81;;;16.95;73.46
21781;BME280;52576;53.614;9.894;2023-06-22T01:06:26;101757.25;;;16.95;73.54
21781;BME280;52576;53.614;9.894;2023-06-22T01:08:39;101755.56;;;16.94;73.72
21781;BME280;52576;53.614;9.894;2023-06-22T01:14:12;101750.50;;;16.91;74.23
21781;BME280;52576;53.614;9.894;2023-06-22T01:16:19;101747.97;;;16.89;74.17
21781;BME280;52576;53.614;9.894;2023-06-22T01:18:23;101747.16;;;16.89;74.07
21781;BME280;52576;53.614;9.894;2023-06-22T01:20:28;101750.06;;;16.86;74.48
21781;BME280;52576;53.614;9.894;2023-06-22T01:22:33;101745.72;;;16.85;74.46
21781;BME280;52576;53.614;9.894;2023-06-22T01:24:48;101742.34;;;16.83;74.80
21781;BME280;52576;53.614;9.894;2023-06-22T01:26:57;101745.13;;;16.81;74.89
21781;BME280;52576;53.614;9.894;2023-06-22T01:29:05;101742.59;;;16.80;75.27
21781;BME280;52576;53.614;9.894;2023-06-22T01:31:10;101742.59;;;16.80;75.31
21781;BME280;52576;53.614;9.894;2023-06-22T01:33:14;101744.28;;;16.81;75.03
21781;BME280;52576;53.614;9.894;2023-06-22T01:35:18;101742.47;;;16.81;75.27
21781;BME280;52576;53.614;9.894;2023-06-22T01:37:22;101738.13;;;16.80;74.86
21781;BME280;52576;53.614;9.894;2023-06-22T01:39:25;101735.59;;;16.79;74.83
21781;BME280;52576;53.614;9.894;2023-06-22T01:41:29;101739.22;;;16.78;74.95
21781;BME280;52576;53.614;9.894;2023-06-22T01:43:32;101732.34;;;16.75;75.51
21781;BME280;52576;53.614;9.894;2023-06-22T01:45:37;101731.50;;;16.75;75.44
21781;BME280;52576;53.614;9.894;2023-06-22T01:47:40;101737.75;;;16.74;75.46
21781;BME280;52576;53.614;9.894;2023-06-22T01:49:43;101736.91;;;16.73;75.60
21781;BME280;52576;53.614;9.894;2023-06-22T01:51:47;101744.00;;;16.73;75.54
21781;BME280;52576;53.614;9.894;2023-06-22T01:53:50;101741.38;;;16.73;75.95
21781;BME280;52576;53.614;9.894;2023-06-22T01:55:53;101736.06;;;16.73;75.63
21781;BME280;52576;53.614;9.894;2023-06-22T01:57:56;101734.25;;;16.73;75.98
21781;BME280;52576;53.614;9.894;2023-06-22T02:00:00;101735.09;;;16.74;76.16
21781;BME280;52576;53.614;9.894;2023-06-22T02:02:16;101737.75;;;16.74;76.28
21781;BME280;52576;53.614;9.894;2023-06-22T02:04:24;101741.38;;;16.73;76.21
21781;BME280;52576;53.614;9.894;2023-06-22T02:06:29;101745.94;;;16.71;76.58
21781;BME280;52576;53.614;9.894;2023-06-22T02:08:39;101744.25;;;16.70;76.31
21781;BME280;52576;53.614;9.894;2023-06-22T02:10:43;101746.16;;;16.68;76.61
21781;BME280;52576;53.614;9.894;2023-06-22T02:12:46;101740.97;;;16.66;76.46
21781;BME280;52576;53.614;9.894;2023-06-22T02:14:50;101742.06;;;16.63;76.23
21781;BME280;52576;53.614;9.894;2023-06-22T02:16:54;101741.34;;;16.61;76.36
21781;BME280;52576;53.614;9.894;2023-06-22T02:19:02;101744.22;;;16.58;76.69
21781;BME280;52576;53.614;9.894;2023-06-22T02:21:08;101746.13;;;16.56;76.58
21781;BME280;52576;53.614;9.894;2023-06-22T02:23:11;101739.16;;;16.55;76.80
21781;BME280;52576;53.614;9.894;2023-06-22T02:25:13;101745.41;;;16.54;76.96
21781;BME280;52576;53.614;9.894;2023-06-22T02:27:19;101746.34;;;16.53;76.91
21781;BME280;52576;53.614;9.894;2023-06-22T02:29:22;101742.13;;;16.51;77.00
21781;BME280;52576;53.614;9.894;2023-06-22T02:31:25;101744.91;;;16.49;77.23
21781;BME280;52576;53.614;9.894;2023-06-22T02:33:32;101738.75;;;16.49;77.43
21781;BME280;52576;53.614;9.894;2023-06-22T02:35:36;101722.28;;;16.45;77.47
21781;BME280;52576;53.614;9.894;2023-06-22T02:37:40;101717.94;;;16.44;77.70
21781;BME280;52576;53.614;9.894;2023-06-22T02:39:43;101717.22;;;16.42;78.00
21781;BME280;52576;53.614;9.894;2023-06-22T02:41:46;101722.72;;;16.39;78.26
21781;BME280;52576;53.614;9.894;2023-06-22T02:43:49;101729.94;;;16.37;78.02
21781;BME280;52576;53.614;9.894;2023-06-22T02:45:53;101730.09;;;16.36;78.09
21781;BME280;52576;53.614;9.894;2023-06-22T02:47:57;101737.28;;;16.34;78.43
21781;BME280;52576;53.614;9.894;2023-06-22T02:49:59;101726.84;;;16.32;78.37
21781;BME280;52576;53.614;9.894;2023-06-22T02:52:08;101723.47;;;16.30;78.30
21781;BME280;52576;53.614;9.894;2023-06-22T02:54:11;101722.84;;;16.26;78.64
21781;BME280;52576;53.614;9.894;2023-06-22T02:56:15;101723.91;;;16.24;78.69
21781;BME280;52576;53.614;9.894;2023-06-22T02:58:19;101730.28;;;16.21;78.95
21781;BME280;52576;53.614;9.894;2023-06-22T03:00:23;101738.31;;;16.20;79.20
21781;BME280;52576;53.614;9.894;2023-06-22T03:02:32;101729.66;;;16.18;79.17
21781;BME280;52576;53.614;9.894;2023-06-22T03:04:35;101724.38;;;16.18;78.81
21781;BME280;52576;53.614;9.894;2023-06-22T03:06:38;101727.13;;;16.16;79.03
21781;BME280;52576;53.614;9.894;2023-06-22T03:08:44;101719.31;;;16.15;79.29
21781;BME280;52576;53.614;9.894;2023-06-22T03:10:47;101722.91;;;16.14;79.21
21781;BME280;52576;53.614;9.894;2023-06-22T03:12:50;101741.53;;;16.12;79.30
21781;BME280;52576;53.614;9.894;2023-06-22T03:14:53;101735.66;;;16.09;79.36
21781;BME280;52576;53.614;9.894;2023-06-22T03:16:56;101739.25;;;16.08;79.54
21781;BME280;52576;53.614;9.894;2023-06-22T03:19:04;101740.22;;;16.07;79.63
21781;BME280;52576;53.614;9.894;2023-06-22T03:21:07;101739.47;;;16.05;79.37
21781;BME280;52576;53.614;9.894;2023-06-22T03:23:10;101733.34;;;16.04;79.30
21781;BME280;52576;53.614;9.894;2023-06-22T03:25:14;101739.69;;;16.02;79.80
21781;BME280;52576;53.614;9.894;2023-06-22T03:27:20;101741.50;;;16.01;79.81
21781;BME280;52576;53.614;9.894;2023-06-22T03:29:23;101743.31;;;16.01;80.06
21781;BME280;52576;53.614;9.894;2023-06-22T03:31:30;101752.19;;;16.00;80.03
21781;BME280;52576;53.614;9.894;2023-06-22T03:33:33;101748.59;;;16.01;79.92
21781;BME280;52576;53.614;9.894;2023-06-22T03:35:36;101755.56;;;16.02;80.09
21781;BME280;52576;53.614;9.894;2023-06-22T03:37:40;101746.78;;;16.01;80.05
21781;BME280;52576;53.614;9.894;2023-06-22T03:39:43;101756.41;;;16.02;80.36
21781;BME280;52576;53.614;9.894;2023-06-22T03:41:47;101765.09;;;16.04;79.91
21781;BME280;52576;53.614;9.894;2023-06-22T03:43:51;101761.47;;;16.05;80.26
21781;BME280;52576;53.614;9.894;2023-06-22T03:45:54;101760.41;;;16.08;80.16
21781;BME280;52576;53.614;9.894;2023-06-22T03:47:57;101764.50;;;16.12;79.98
21781;BME280;52576;53.614;9.894;2023-06-22T03:50:00;101766.91;;;16.15;80.27
21781;BME280;52576;53.614;9.894;2023-06-22T03:52:07;101756.09;;;16.18;80.27
21781;BME280;52576;53.614;9.894;2023-06-22T03:54:10;101759.25;;;16.23;79.99
21781;BME280;52576;53.614;9.894;2023-06-22T03:56:13;101754.59;;;16.26;80.08
21781;BME280;52576;53.614;9.894;2023-06-22T03:58:23;101762.19;;;16.31;79.81
21781;BME280;52576;53.614;9.894;2023-06-22T04:00:25;101764.47;;;16.36;79.77
21781;BME280;52576;53.614;9.894;2023-06-22T04:02:29;101766.75;;;16.40;79.73
21781;BME280;52576;53.614;9.894;2023-06-22T04:04:32;101769.78;;;16.47;79.35
21781;BME280;52576;53.614;9.894;2023-06-22T04:06:35;101767.75;;;16.50;79.48
21781;BME280;52576;53.614;9.894;2023-06-22T04:08:38;101770.91;;;16.55;79.18
21781;BME280;52576;53.614;9.894;2023-06-22T04:10:41;101772.38;;;16.59;79.71
21781;BME280;52576;53.614;9.894;2023-06-22T04:12:44;101772.13;;;16.62;79.42
21781;BME280;52576;53.614;9.894;2023-06-22T04:14:48;101774.44;;;16.67;79.41
21781;BME280;52576;53.614;9.894;2023-06-22T04:16:51;101776.75;;;16.72;79.19
21781;BME280;52576;53.614;9.894;2023-06-22T04:18:54;101781.56;;;16.78;79.09
21781;BME280;52576;53.614;9.894;2023-06-22T04:20:57;101786.41;;;16.84;78.96
21781;BME280;52576;53.614;9.894;2023-06-22T04:22:59;101778.94;;;16.89;78.55
21781;BME280;52576;53.614;9.894;2023-06-22T04:25:02;101785.66;;;16.93;78.67
21781;BME280;52576;53.614;9.894;2023-06-22T04:27:05;101785.44;;;16.96;78.82
21781;BME280;52576;53.614;9.894;2023-06-22T04:29:08;101785.19;;;16.99;79.00
21781;BME280;52576;53.614;9.894;2023-06-22T04:31:12;101781.34;;;17.03;78.92
21781;BME280;52576;53.614;9.894;2023-06-22T04:33:15;101794.25;;;17.08;78.79
21781;BME280;52576;53.614;9.894;2023-06-22T04:35:20;101792.22;;;17.11;78.60
21781;BME280;52576;53.614;9.894;2023-06-22T04:37:24;101790.16;;;17.15;78.69
21781;BME280;52576;53.614;9.894;2023-06-22T04:39:26;101788.22;;;17.17;78.25
21781;BME280;52576;53.614;9.894;2023-06-22T04:41:29;101785.19;;;17.21;78.22
21781;BME280;52576;53.614;9.894;2023-06-22T04:43:43;101791.94;;;17.25;77.94
21781;BME280;52576;53.614;9.894;2023-06-22T04:45:46;101799.53;;;17.30;77.92
21781;BME280;52576;53.614;9.894;2023-06-22T04:47:55;101791.25;;;17.35;77.81
21781;BME280;52576;53.614;9.894;2023-06-22T04:49:58;101792.69;;;17.39;77.52
21781;BME280;52576;53.614;9.894;2023-06-22T04:52:04;101785.19;;;17.44;76.92
21781;BME280;52576;53.614;9.894;2023-06-22T04:54:07;101795.31;;;17.50;77.23
21781;BME280;52576;53.614;9.894;2023-06-22T04:56:10;101791.22;;;17.57;76.72
21781;BME280;52576;53.614;9.894;2023-06-22T04:58:13;101792.41;;;17.64;76.82
21781;BME280;52576;53.614;9.894;2023-06-22T05:00:16;101795.28;;;17.72;76.33
21781;BME280;52576;53.614;9.894;2023-06-22T05:02:20;101794.81;;;17.78;75.86
21781;BME280;52576;53.614;9.894;2023-06-22T05:04:26;101787.34;;;17.83;75.29
21781;BME280;52576;53.614;9.894;2023-06-22T05:06:29;101782.38;;;17.90;75.36
21781;BME280;52576;53.614;9.894;2023-06-22T05:08:32;101788.00;;;17.96;74.61
21781;BME280;52576;53.614;9.894;2023-06-22T05:10:36;101792.69;;;18.04;74.63
21781;BME280;52576;53.614;9.894;2023-06-22T05:12:55;101782.28;;;18.12;74.25
21781;BME280;52576;53.614;9.894;2023-06-22T05:14:58;101791.41;;;18.19;73.69
21781;BME280;52576;53.614;9.894;2023-06-22T05:17:01;101788.25;;;18.25;72.85
21781;BME280;52576;53.614;9.894;2023-06-22T05:19:05;101789.56;;;18.31;72.30
21781;BME280;52576;53.614;9.894;2023-06-22T05:21:10;101791.84;;;18.36;72.21
21781;BME280;52576;53.614;9.894;2023-06-22T05:23:13;101789.53;;;18.42;71.94
21781;BME280;52576;53.614;9.894;2023-06-22T05:25:16;101783.69;;;18.48;72.03
21781;BME280;52576;53.614;9.894;2023-06-22T05:27:19;101791.84;;;18.56;70.70
21781;BME280;52576;53.614;9.894;2023-06-22T05:29:22;101793.19;;;18.62;71.05
21781;BME280;52576;53.614;9.894;2023-06-22T05:31:24;101794.47;;;18.68;70.22
21781;BME280;52576;53.614;9.894;2023-06-22T05:33:27;101798.28;;;18.75;70.11
21781;BME280;52576;53.614;9.894;2023-06-22T05:35:30;101796.91;;;18.80;69.13
21781;BME280;52576;53.614;9.894;2023-06-22T05:37:34;101800.16;;;18.84;68.49
21781;BME280;52576;53.614;9.894;2023-06-22T05:39:37;101800.63;;;18.89;68.52
21781;BME280;52576;53.614;9.894;2023-06-22T05:41:40;101804.44;;;18.96;68.47
21781;BME280;52576;53.614;9.894;2023-06-22T05:43:44;101797.72;;;19.02;67.81
21781;BME280;52576;53.614;9.894;2023-06-22T05:45:48;101792.72;;;19.08;67.76
21781;BME280;52576;53.614;9.894;2023-06-22T05:47:51;101792.22;;;19.14;67.71
21781;BME280;52576;53.614;9.894;2023-06-22T05:49:54;101788.06;;;19.21;67.59
21781;BME280;52576;53.614;9.894;2023-06-22T05:51:57;101789.19;;;19.28;67.28
21781;BME280;52576;53.614;9.894;2023-06-22T05:54:01;101788.38;;;19.38;67.18
21781;BME280;52576;53.614;9.894;2023-06-22T05:56:04;101797.38;;;19.46;66.79
21781;BME280;52576;53.614;9.894;2023-06-22T05:58:06;101794.75;;;19.56;66.71
21781;BME280;52576;53.614;9.894;2023-06-22T06:00:10;101793.25;;;19.63;65.97
21781;BME280;52576;53.614;9.894;2023-06-22T06:02:14;101787.97;;;19.73;65.66
21781;BME280;52576;53.614;9.894;2023-06-22T06:04:17;101788.50;;;19.76;64.37
21781;BME280;52576;53.614;9.894;2023-06-22T06:06:20;101782.34;;;19.76;63.83
21781;BME280;52576;53.614;9.894;2023-06-22T06:08:25;101786.81;;;19.75;63.79
21781;BME280;52576;53.614;9.894;2023-06-22T06:10:30;101781.09;;;19.80;64.21
21781;BME280;52576;53.614;9.894;2023-06-22T06:12:33;101789.38;;;19.86;63.84
21781;BME280;52576;53.614;9.894;2023-06-22T06:14:36;101786.88;;;19.94;63.47
21781;BME280;52576;53.614;9.894;2023-06-22T06:16:39;101786.00;;;20.04;63.43
21781;BME280;52576;53.614;9.894;2023-06-22T06:18:42;101790.78;;;20.10;63.20
21781;BME280;52576;53.614;9.894;2023-06-22T06:20:45;101790.22;;;20.16;62.91
21781;BME280;52576;53.614;9.894;2023-06-22T06:22:48;101786.31;;;20.20;62.65
21781;BME280;52576;53.614;9.894;2023-06-22T06:24:51;101791.38;;;20.23;62.22
21781;BME280;52576;53.614;9.894;2023-06-22T06:26:55;101790.25;;;20.25;62.42
21781;BME280;52576;53.614;9.894;2023-06-22T06:28:59;101788.25;;;20.27;62.31
21781;BME280;52576;53.614;9.894;2023-06-22T06:31:02;101783.78;;;20.28;61.92
21781;BME280;52576;53.614;9.894;2023-06-22T06:33:08;101776.50;;;20.30;61.74
21781;BME280;52576;53.614;9.894;2023-06-22T06:35:12;101781.09;;;20.28;61.89
21781;BME280;52576;53.614;9.894;2023-06-22T06:37:15;101785.44;;;20.29;61.56
21781;BME280;52576;53.614;9.894;2023-06-22T06:39:17;101786.44;;;20.28;61.19
21781;BME280;52576;53.614;9.894;2023-06-22T06:41:22;101785.75;;;20.26;61.32
21781;BME280;52576;53.614;9.894;2023-06-22T06:43:26;101787.72;;;20.24;61.59
21781;BME280;52576;53.614;9.894;2023-06-22T06:45:29;101786.03;;;20.23;61.49
21781;BME280;52576;53.614;9.894;2023-06-22T06:47:34;101773.00;;;20.20;61.20
21781;BME280;52576;53.614;9.894;2023-06-22T06:49:37;101774.00;;;20.19;61.25
21781;BME280;52576;53.614;9.894;2023-06-22T06:51:40;101776.09;;;20.15;61.15
21781;BME280;52576;53.614;9.894;2023-06-22T06:53:43;101779.72;;;20.14;61.63
21781;BME280;52576;53.614;9.894;2023-06-22T06:55:46;101779.59;;;20.16;61.68
21781;BME280;52576;53.614;9.894;2023-06-22T06:57:49;101772.88;;;20.21;62.10
21781;BME280;52576;53.614;9.894;2023-06-22T06:59:55;101773.97;;;20.28;61.68
21781;BME280;52576;53.614;9.894;2023-06-22T07:01:58;101770.34;;;20.39;61.17
21781;BME280;52576;53.614;9.894;2023-06-22T07:04:01;101768.81;;;20.46;61.14
21781;BME280;52576;53.614;9.894;2023-06-22T07:06:04;101774.25;;;20.54;60.95
21781;BME280;52576;53.614;9.894;2023-06-22T07:08:07;101765.41;;;20.63;60.91
21781;BME280;52576;53.614;9.894;2023-06-22T07:10:10;101775.91;;;20.75;60.79
21781;BME280;52576;53.614;9.894;2023-06-22T07:12:13;101774.75;;;20.87;60.27
21781;BME280;52576;53.614;9.894;2023-06-22T07:14:16;101771.91;;;20.98;59.47
21781;BME280;52576;53.614;9.894;2023-06-22T07:16:20;101773.69;;;21.07;59.31
21781;BME280;52576;53.614;9.894;2023-06-22T07:18:24;101771.13;;;21.15;59.56
21781;BME280;52576;53.614;9.894;2023-06-22T07:20:28;101770.16;;;21.26;59.06
21781;BME280;52576;53.614;9.894;2023-06-22T07:22:31;101770.63;;;21.39;58.57
21781;BME280;52576;53.614;9.894;2023-06-22T07:24:34;101770.28;;;21.52;58.28
21781;BME280;52576;53.614;9.894;2023-06-22T07:26:37;101762.34;;;21.60;57.69
21781;BME280;52576;53.614;9.894;2023-06-22T07:28:40;101772.81;;;21.71;57.59
21781;BME280;52576;53.614;9.894;2023-06-22T07:30:43;101770.09;;;21.81;57.32
21781;BME280;52576;53.614;9.894;2023-06-22T07:32:47;101760.19;;;21.91;56.93
21781;BME280;52576;53.614;9.894;2023-06-22T07:34:50;101761.81;;;22.02;56.85
21781;BME280;52576;53.614;9.894;2023-06-22T07:36:53;101769.72;;;22.11;56.46
21781;BME280;52576;53.614;9.894;2023-06-22T07:38:55;101776.00;;;22.20;56.24
21781;BME280;52576;53.614;9.894;2023-06-22T07:40:58;101774.41;;;22.27;56.21
21781;BME280;52576;53.614;9.894;2023-06-22T07:43:01;101776.13;;;22.36;55.36
21781;BME280;52576;53.614;9.894;2023-06-22T07:45:06;101771.53;;;22.46;55.34
21781;BME280;52576;53.614;9.894;2023-06-22T07:47:10;101779.31;;;22.57;55.19
21781;BME280;52576;53.614;9.894;2023-06-22T07:49:14;101776.38;;;22.68;54.98
21781;BME280;52576;53.614;9.894;2023-06-22T07:51:17;101781.78;;;22.77;54.74
21781;BME280;52576;53.614;9.894;2023-06-22T07:53:20;101778.50;;;22.83;53.86
21781;BME280;52576;53.614;9.894;2023-06-22T07:55:23;101779.03;;;22.86;53.42
21781;BME280;52576;53.614;9.894;2023-06-22T07:57:26;101775.88;;;22.91;53.72
21781;BME280;52576;53.614;9.894;2023-06-22T07:59:34;101773.56;;;22.96;53.29
21781;BME280;52576;53.614;9.894;2023-06-22T08:01:38;101778.75;;;22.97;52.85
21781;BME280;52576;53.614;9.894;2023-06-22T08:03:41;101773.25;;;22.99;52.95
21781;BME280;52576;53.614;9.894;2023-06-22T08:05:45;101767.44;;;23.04;53.09
21781;BME280;52576;53.614;9.894;2023-06-22T08:07:48;101769.97;;;23.13;52.62
21781;BME280;52576;53.614;9.894;2023-06-22T08:09:51;101775.34;;;23.21;52.25
21781;BME280;52576;53.614;9.894;2023-06-22T08:11:54;101776.25;;;23.30;52.43
21781;BME280;52576;53.614;9.894;2023-06-22T08:13:58;101779.78;;;23.39;51.80
21781;BME280;52576;53.614;9.894;2023-06-22T08:16:01;101775.75;;;23.43;51.08
21781;BME280;52576;53.614;9.894;2023-06-22T08:18:04;101776.09;;;23.40;51.37
21781;BME280;52576;53.614;9.894;2023-06-22T08:20:07;101773.25;;;23.41;50.97
21781;BME280;52576;53.614;9.894;2023-06-22T08:22:15;101776.09;;;23.40;50.87
21781;BME280;52576;53.614;9.894;2023-06-22T08:24:18;101776.75;;;23.33;51.19
21781;BME280;52576;53.614;9.894;2023-06-22T08:26:21;101769.22;;;23.29;51.33
21781;BME280;52576;53.614;9.894;2023-06-22T08:28:25;101757.66;;;23.28;51.63
21781;BME280;52576;53.614;9.894;2023-06-22T08:30:27;101760.72;;;23.33;51.68
21781;BME280;52576;53.614;9.894;2023-06-22T08:32:30;101762.22;;;23.44;51.04
21781;BME280;52576;53.614;9.894;2023-06-22T08:34:36;101765.31;;;23.57;50.84
21781;BME280;52576;53.614;9.894;2023-06-22T08:36:39;101764.50;;;23.65;50.23
21781;BME280;52576;53.614;9.894;2023-06-22T08:38:47;101760.84;;;23.74;50.58
21781;BME280;52576;53.614;9.894;2023-06-22T08:40:51;101763.53;;;23.82;49.93
21781;BME280;52576;53.614;9.894;2023-06-22T08:42:55;101756.03;;;23.86;49.79
21781;BME280;52576;53.614;9.894;2023-06-22T08:44:58;101764.88;;;23.94;49.04
21781;BME280;52576;53.614;9.894;2023-06-22T08:47:01;101761.53;;;24.00;49.52
21781;BME280;52576;53.614;9.894;2023-06-22T08:49:05;101753.69;;;24.07;49.37
21781;BME280;52576;53.614;9.894;2023-06-22T08:51:08;101743.16;;;24.14;48.74
21781;BME280;52576;53.614;9.894;2023-06-22T08:53:10;101744.13;;;24.21;48.88
21781;BME280;52576;53.614;9.894;2023-06-22T08:55:15;101742.34;;;24.29;49.13
21781;BME280;52576;53.614;9.894;2023-06-22T08:57:18;101738.81;;;24.37;49.27
21781;BME280;52576;53.614;9.894;2023-06-22T08:59:21;101736.09;;;24.45;48.86
21781;BME280;52576;53.614;9.894;2023-06-22T09:01:24;101737.28;;;24.59;49.07
21781;BME280;52576;53.614;9.894;2023-06-22T09:03:27;101735.22;;;24.77;48.98
21781;BME280;52576;53.614;9.894;2023-06-22T09:05:30;101730.66;;;24.94;47.61
21781;BME280;52576;53.614;9.894;2023-06-22T09:07:34;101736.31;;;25.07;46.95
21781;BME280;52576;53.614;9.894;2023-06-22T09:09:37;101731.25;;;25.20;47.04
21781;BME280;52576;53.614;9.894;2023-06-22T09:11:41;101727.84;;;25.26;45.91
21781;BME280;52576;53.614;9.894;2023-06-22T09:13:44;101731.84;;;25.30;46.04
21781;BME280;52576;53.614;9.894;2023-06-22T09:15:47;101726.63;;;25.37;45.72
21781;BME280;52576;53.614;9.894;2023-06-22T09:17:50;101722.22;;;25.44;46.29
21781;BME280;52576;53.614;9.894;2023-06-22T09:19:56;101721.84;;;25.47;46.07
21781;BME280;52576;53.614;9.894;2023-06-22T09:21:58;101722.69;;;25.48;46.30
21781;BME280;52576;53.614;9.894;2023-06-22T09:24:02;101721.97;;;25.54;46.41
21781;BME280;52576;53.614;9.894;2023-06-22T09:26:05;101716.56;;;25.62;46.07
21781;BME280;52576;53.614;9.894;2023-06-22T09:28:09;101716.56;;;25.70;45.62
21781;BME280;52576;53.614;9.894;2023-06-22T09:30:12;101715.09;;;25.82;46.10
21781;BME280;52576;53.614;9.894;2023-06-22T09:32:15;101710.34;;;25.92;46.16
21781;BME280;52576;53.614;9.894;2023-06-22T09:34:18;101709.63;;;25.98;45.33
21781;BME280;52576;53.614;9.894;2023-06-22T09:36:21;101709.91;;;26.03;45.06
21781;BME280;52576;53.614;9.894;2023-06-22T09:38:24;101702.78;;;26.11;45.12
21781;BME280;52576;53.614;9.894;2023-06-22T09:40:27;101700.41;;;26.16;44.95
21781;BME280;52576;53.614;9.894;2023-06-22T09:42:30;101708.09;;;26.19;45.11
21781;BME280;52576;53.614;9.894;2023-06-22T09:44:35;101694.31;;;26.22;44.91
21781;BME280;52576;53.614;9.894;2023-06-22T09:46:37;101699.59;;;26.30;44.35
21781;BME280;52576;53.614;9.894;2023-06-22T09:48:40;101699.44;;;26.31;44.39
21781;BME280;52576;53.614;9.894;2023-06-22T09:50:43;101699.91;;;26.35;44.03
21781;BME280;52576;53.614;9.894;2023-06-22T09:52:46;101704.91;;;26.38;44.48
21781;BME280;52576;53.614;9.894;2023-06-22T09:54:52;101697.50;;;26.40;44.14
21781;BME280;52576;53.614;9.894;2023-06-22T09:56:55;101701.69;;;26.43;43.89
21781;BME280;52576;53.614;9.894;2023-06-22T09:58:58;101697.44;;;26.48;44.00
21781;BME280;52576;53.614;9.894;2023-06-22T10:01:19;101696.47;;;26.56;44.23
21781;BME280;52576;53.614;9.894;2023-06-22T10:03:23;101690.84;;;26.65;43.32
21781;BME280;52576;53.614;9.894;2023-06-22T10:05:26;101684.25;;;26.68;43.04
21781;BME280;52576;53.614;9.894;2023-06-22T10:07:29;101683.06;;;26.70;43.39
21781;BME280;52576;53.614;9.894;2023-06-22T10:09:32;101680.66;;;26.76;43.70
21781;BME280;52576;53.614;9.894;2023-06-22T10:11:35;101689.91;;;26.88;43.02
21781;BME280;52576;53.614;9.894;2023-06-22T10:13:38;101686.84;;;26.91;42.05
21781;BME280;52576;53.614;9.894;2023-06-22T10:15:41;101680.91;;;26.81;42.46
21781;BME280;52576;53.614;9.894;2023-06-22T10:17:45;101680.38;;;26.70;43.08
21781;BME280;52576;53.614;9.894;2023-06-22T10:19:48;101676.75;;;26.63;42.87
21781;BME280;52576;53.614;9.894;2023-06-22T10:21:51;101677.75;;;26.62;42.57
21781;BME280;52576;53.614;9.894;2023-06-22T10:23:54;101671.19;;;26.65;42.83
21781;BME280;52576;53.614;9.894;2023-06-22T10:25:57;101673.97;;;26.72;42.13
21781;BME280;52576;53.614;9.894;2023-06-22T10:28:01;101670.50;;;26.78;42.93
21781;BME280;52576;53.614;9.894;2023-06-22T10:30:05;101673.94;;;26.86;42.63
21781;BME280;52576;53.614;9.894;2023-06-22T10:32:08;101670.41;;;26.86;42.79
21781;BME280;52576;53.614;9.894;2023-06-22T10:34:12;101663.38;;;26.85;42.58
21781;BME280;52576;53.614;9.894;2023-06-22T10:36:15;101663.38;;;26.85;42.07
21781;BME280;52576;53.614;9.894;2023-06-22T10:38:18;101668.56;;;26.86;42.05
21781;BME280;52576;53.614;9.894;2023-06-22T10:40:21;101658.34;;;26.82;42.24
21781;BME280;52576;53.614;9.894;2023-06-22T10:42:24;101659.13;;;26.76;42.44
21781;BME280;52576;53.614;9.894;2023-06-22T10:44:27;101655.31;;;26.70;42.85
21781;BME280;52576;53.614;9.894;2023-06-22T10:46:29;101656.91;;;26.64;42.55
21781;BME280;52576;53.614;9.894;2023-06-22T10:48:32;101654.59;;;26.61;43.06
21781;BME280;52576;53.614;9.894;2023-06-22T10:50:37;101655.59;;;26.60;43.37